createdAt,value
2022-08-11T00:01:16.643Z,102388.81
2022-08-11T00:06:41.005Z,102390.84
2022-08-11T00:12:04.949Z,102377.47
2022-08-11T00:17:31.885Z,102362.78
2022-08-11T00:23:03.140Z,102382.78
2022-08-11T00:28:28.434Z,102389.22
2022-08-11T00:33:53.375Z,102386.72
2022-08-11T00:39:17.553Z,102393.03
2022-08-11T00:44:51.569Z,102399.00
2022-08-11T00:50:23.178Z,102395.13
2022-08-11T00:56:09.541Z,102385.28
2022-08-11T01:01:56.874Z,102389.28
2022-08-11T01:08:02.448Z,102387.09
2022-08-11T01:14:16.625Z,102377.19
2022-08-11T01:20:44.889Z,102387.97
2022-08-11T01:26:21.994Z,102382.88
2022-08-11T01:32:23.269Z,102385.13
2022-08-11T01:38:06.822Z,102382.78
2022-08-11T01:44:15.706Z,102376.28
2022-08-11T01:50:07.290Z,102363.09
2022-08-11T01:55:41.341Z,102342.59
2022-08-11T02:01:12.766Z,102361.94
2022-08-11T02:06:58.373Z,102364.59
2022-08-11T02:12:33.589Z,102375.28
2022-08-11T02:18:07.016Z,102361.53
2022-08-11T02:24:05.712Z,102365.97
2022-08-11T02:29:31.215Z,102361.81
2022-08-11T02:35:01.519Z,102365.38
2022-08-11T02:40:37.415Z,102361.25
2022-08-11T02:46:20.293Z,102357.31
2022-08-11T02:51:58.254Z,102359.19
2022-08-11T02:57:25.009Z,102353.19
2022-08-11T03:02:56.629Z,102349.88
2022-08-11T03:08:29.199Z,102343.94
2022-08-11T03:14:18.717Z,102343.84
2022-08-11T03:19:49.606Z,102342.63
2022-08-11T03:25:19.129Z,102282.44
2022-08-11T03:30:48.845Z,102337.09
2022-08-11T03:36:21.492Z,102336.50
2022-08-11T03:42:03.580Z,102338.34
2022-08-11T03:47:41.358Z,102339.56
2022-08-11T03:53:31.918Z,102336.31
2022-08-11T03:59:33.398Z,102339.16
2022-08-11T04:05:24.810Z,102341.16
2022-08-11T04:11:08.607Z,102344.78
2022-08-11T04:16:44.478Z,102350.84
2022-08-11T04:22:52.850Z,102353.56
2022-08-11T04:28:51.920Z,102336.03
2022-08-11T04:34:37.694Z,102338.09
2022-08-11T04:40:33.765Z,102329.38
2022-08-11T04:46:38.684Z,102336.25
2022-08-11T04:52:47.694Z,102330.38
2022-08-11T04:58:36.062Z,102336.34
2022-08-11T05:04:30.046Z,102336.41
2022-08-11T05:10:16.405Z,102331.94
2022-08-11T05:16:04.790Z,102309.59
2022-08-11T05:21:45.817Z,102322.34
2022-08-11T05:27:30.091Z,102335.72
2022-08-11T05:33:16.408Z,102341.56
2022-08-11T05:38:57.500Z,102347.84
2022-08-11T05:44:39.903Z,102341.50
2022-08-11T05:50:31.463Z,102339.56
2022-08-11T05:56:14.127Z,102351.59
2022-08-11T06:01:39.321Z,102358.13
2022-08-11T06:07:06.319Z,102354.00
2022-08-11T06:12:32.453Z,102353.84
2022-08-11T06:17:58.535Z,102344.41
2022-08-11T06:23:23.754Z,102357.06
2022-08-11T06:28:49.348Z,102350.47
2022-08-11T06:34:27.069Z,102349.00
2022-08-11T06:40:03.100Z,102349.25
2022-08-11T06:45:31.543Z,102351.56
2022-08-11T06:51:13.310Z,102350.44
2022-08-11T07:02:45.388Z,102332.56
2022-08-11T07:08:51.791Z,102328.09
2022-08-11T07:14:38.645Z,102326.78
2022-08-11T07:20:21.558Z,102324.44
2022-08-11T07:26:27.359Z,102322.84
2022-08-11T07:31:53.919Z,102322.34
2022-08-11T07:37:19.778Z,102302.28
2022-08-11T07:42:46.649Z,102312.41
2022-08-11T07:48:28.638Z,102318.22
2022-08-11T07:53:58.575Z,102315.97
2022-08-11T08:00:03.359Z,102305.47
2022-08-11T08:05:56.658Z,102296.94
2022-08-11T08:11:39.392Z,102321.78
2022-08-11T08:17:21.786Z,102311.50
2022-08-11T08:22:48.455Z,102326.72
2022-08-11T08:28:14.612Z,102322.25
2022-08-11T08:33:42.266Z,102329.84
2022-08-11T08:39:05.600Z,102299.41
2022-08-11T08:44:39.217Z,102325.94
2022-08-11T08:50:08.418Z,102323.13
2022-08-11T08:55:32.170Z,102315.19
2022-08-11T09:00:56.228Z,102305.63
2022-08-11T09:06:21.917Z,102290.94
2022-08-11T09:11:53.422Z,102297.81
2022-08-11T09:17:17.159Z,102297.47
2022-08-11T09:28:46.500Z,102295.47
2022-08-11T09:34:11.236Z,102300.78
2022-08-11T09:39:56.803Z,102290.66
2022-08-11T09:45:20.043Z,102276.34
2022-08-11T09:50:43.486Z,102288.53
2022-08-11T09:56:28.859Z,102282.84
2022-08-11T10:01:56.171Z,102286.16
2022-08-11T10:07:21.266Z,102283.63
2022-08-11T10:12:51.597Z,102287.22
2022-08-11T10:18:37.933Z,102280.84
2022-08-11T10:24:19.618Z,102277.59
2022-08-11T10:30:01.450Z,102273.56
2022-08-11T10:35:26.395Z,102270.44
2022-08-11T10:41:18.868Z,102245.63
2022-08-11T10:47:00.994Z,102263.47
2022-08-11T10:52:41.962Z,102262.16
2022-08-11T10:58:24.754Z,102265.84
2022-08-11T11:03:52.512Z,102254.72
2022-08-11T11:09:18.545Z,102253.97
2022-08-11T11:15:00.941Z,102246.97
2022-08-11T11:20:37.140Z,102251.75
2022-08-11T11:26:12.618Z,102242.44
2022-08-11T11:31:49.303Z,102240.50
2022-08-11T11:37:17.423Z,102242.03
2022-08-11T11:42:45.734Z,102239.94
2022-08-11T11:48:09.301Z,102236.31
2022-08-11T11:53:34.243Z,102241.78
2022-08-11T11:59:15.368Z,102232.91
2022-08-11T12:04:39.242Z,102219.88
2022-08-11T12:10:10.341Z,102221.56
2022-08-11T12:16:33.612Z,102220.63
2022-08-11T12:21:18.040Z,102223.97
2022-08-11T12:27:15.951Z,102208.41
2022-08-11T12:32:41.966Z,102201.03
2022-08-11T12:38:10.907Z,102210.88
2022-08-11T12:43:57.129Z,102184.06
2022-08-11T12:49:44.789Z,102183.94
2022-08-11T12:55:13.663Z,102157.38
2022-08-11T13:00:56.578Z,102173.69
2022-08-11T13:06:20.766Z,102166.63
2022-08-11T13:12:01.700Z,102174.06
2022-08-11T13:17:43.665Z,102145.97
2022-08-11T13:23:07.485Z,102168.34
2022-08-11T13:28:30.767Z,102158.75
2022-08-11T13:33:55.522Z,102162.81
2022-08-11T13:39:19.411Z,102156.19
2022-08-11T13:44:43.819Z,102153.41
2022-08-11T13:50:09.637Z,102163.34
2022-08-11T13:55:51.459Z,102130.22
2022-08-11T14:02:19.221Z,102143.25
2022-08-11T14:07:01.653Z,102140.13
2022-08-11T14:12:45.018Z,102132.44
2022-08-11T14:18:11.296Z,102118.38
2022-08-11T14:23:39.844Z,102118.78
2022-08-11T14:29:06.569Z,102106.09
2022-08-11T14:34:30.902Z,102114.81
2022-08-11T14:40:02.842Z,102103.56
2022-08-11T14:45:57.581Z,102100.84
2022-08-11T14:51:23.985Z,102088.59
2022-08-11T14:56:49.295Z,102078.63
2022-08-11T15:02:30.580Z,102082.19
2022-08-11T15:07:55.532Z,102080.63
2022-08-11T15:13:21.204Z,102068.97
2022-08-11T15:18:50.036Z,102071.44
2022-08-11T15:24:24.070Z,102080.16
2022-08-11T15:30:11.089Z,102038.69
2022-08-11T15:36:02.758Z,102065.00
2022-08-11T15:41:58.201Z,102062.59
2022-08-11T15:47:27.318Z,102059.13
2022-08-11T15:52:59.415Z,102053.34
2022-08-11T15:58:40.911Z,102051.44
2022-08-11T16:04:15.355Z,102037.84
2022-08-11T16:09:47.456Z,102036.97
2022-08-11T16:15:29.539Z,102034.91
2022-08-11T16:20:55.735Z,102024.47
2022-08-11T16:27:08.965Z,102018.19
2022-08-11T16:32:29.579Z,102025.19
2022-08-11T16:38:12.787Z,102021.75
2022-08-11T16:44:13.462Z,102013.03
2022-08-11T16:49:38.650Z,102016.34
2022-08-11T16:55:03.851Z,102018.22
2022-08-11T17:00:27.669Z,102022.41
2022-08-11T17:06:11.284Z,102010.66
2022-08-11T17:12:01.179Z,102012.94
2022-08-11T17:17:28.055Z,102000.47
2022-08-11T17:23:13.346Z,102010.47
2022-08-11T17:29:01.121Z,102008.59
2022-08-11T17:34:41.538Z,102007.41
2022-08-11T17:40:08.810Z,101998.63
2022-08-11T17:45:56.695Z,101998.19
2022-08-11T17:51:36.683Z,102006.47
2022-08-11T17:57:21.123Z,102000.09
2022-08-11T18:03:07.239Z,101992.66
2022-08-11T18:08:49.163Z,102015.09
2022-08-11T18:14:31.877Z,102007.50
2022-08-11T18:20:13.805Z,102010.44
2022-08-11T18:25:58.724Z,102015.22
2022-08-11T18:31:40.497Z,102022.59
2022-08-11T18:37:29.139Z,102023.78
2022-08-11T18:43:12.094Z,102016.66
2022-08-11T18:48:54.665Z,102028.91
2022-08-11T19:00:41.715Z,102042.69
2022-08-11T19:06:39.853Z,102056.81
2022-08-11T19:12:25.336Z,102048.50
2022-08-11T19:18:06.197Z,102048.25
2022-08-11T19:23:52.901Z,102047.63
2022-08-11T19:30:07.956Z,102059.84
2022-08-11T19:35:36.817Z,102059.16
2022-08-11T19:41:17.915Z,102055.06
2022-08-11T19:47:20.277Z,102067.34
2022-08-11T19:53:01.527Z,102041.13
2022-08-11T19:58:44.373Z,102068.38
2022-08-11T20:04:26.378Z,102075.03
2022-08-11T20:10:07.964Z,102069.84
2022-08-11T20:15:48.616Z,102076.50
2022-08-11T20:21:33.480Z,102078.50
2022-08-11T20:27:18.941Z,102074.38
2022-08-11T20:33:06.195Z,102083.50
2022-08-11T20:44:56.203Z,102077.19
2022-08-11T20:50:37.280Z,102076.34
2022-08-11T20:56:19.823Z,102081.53
2022-08-11T21:02:03.060Z,102090.16
2022-08-11T21:07:55.629Z,102084.09
2022-08-11T21:13:48.161Z,102083.09
2022-08-11T21:20:00.245Z,102083.19
2022-08-11T21:25:37.285Z,102080.91
2022-08-11T21:31:21.875Z,102088.31
2022-08-11T21:37:03.757Z,102070.22
2022-08-11T21:42:45.275Z,102076.81
2022-08-11T21:48:28.250Z,102075.72
2022-08-11T21:54:09.336Z,102070.06
2022-08-11T22:06:05.059Z,102066.81
2022-08-11T22:11:47.862Z,102073.22
2022-08-11T22:17:33.199Z,102072.75
2022-08-11T22:23:16.169Z,102076.56
2022-08-11T22:28:56.836Z,102076.00
2022-08-11T22:34:45.004Z,102074.75
2022-08-11T22:40:35.299Z,102075.06
2022-08-11T22:46:16.480Z,102080.00
2022-08-11T22:51:58.385Z,102056.81
2022-08-11T22:57:40.857Z,102076.94
2022-08-11T23:03:41.920Z,102079.59
2022-08-11T23:09:23.372Z,102079.59
2022-08-11T23:15:05.186Z,102063.56
2022-08-11T23:20:56.270Z,102085.25
2022-08-11T23:26:41.376Z,102088.47
2022-08-11T23:32:24.585Z,102090.38
2022-08-11T23:38:05.600Z,102090.09
2022-08-11T23:43:46.274Z,102095.41
2022-08-11T23:49:29.178Z,102085.94
2022-08-11T23:55:09.794Z,102079.72
